Terminal Aerodrome Forecast
Issued by NWS Grand Forks, ND

Home | Current Version | Previous Version | Text Only | Print | Product List | Glossary Off
Versions: 1 2 3 4 5 6 7 8 9 10 11 12 13 14 15 16 17 18 19 20

408
FTUS43 KFGF 181122
TAFGFK
TAF
KGFK 181122Z 1812/1912 26009KT P6SM FEW250
     FM181800 29007KT P6SM SCT250
     FM190200 07004KT P6SM BKN120
     FM190900 07008KT P6SM BKN080=

USA.gov is the U.S. government's official web portal to all federal, state and local government web resources and services.